Time;durP1;ratioP1;P1;durP2;ratioP2;P2;SDS_P1;SDS_P2;PMS_P1;PMS_P2;Temp;Humidity;BMP_temperature;BMP_pressure;BME280_temperature;BME280_humidity;BME280_pressure;Samples;Min_cycle;Max_cycle;Signal;HPM_P1;HPM_P2
2022/12/31 00:01:46;;;;;;;155.60;95.85;;;;;;;;;;5087372;28;20078;-76
2022/12/31 00:04:12;;;;;;;69.35;48.45;;;;;;;;;;5081194;28;20400;-79
2022/12/31 00:06:37;;;;;;;82.93;61.80;;;;;;;;;;5092883;28;20097;-76
2022/12/31 00:09:04;;;;;;;51.28;40.58;;;;;;;;;;5087809;28;20444;-77
2022/12/31 00:11:30;;;;;;;79.20;60.97;;;;;;;;;;5094538;28;20416;-78
2022/12/31 00:13:56;;;;;;;48.13;37.28;;;;;;;;;;5094741;28;20043;-78
2022/12/31 00:16:22;;;;;;;42.03;33.35;;;;;;;;;;5081302;28;20032;-75
2022/12/31 00:18:49;;;;;;;25.30;21.60;;;;;;;;;;5077844;28;20015;-79
2022/12/31 00:21:15;;;;;;;32.72;25.50;;;;;;;;;;5080880;28;20430;-78
2022/12/31 00:23:40;;;;;;;52.92;39.03;;;;;;;;;;5093929;28;20077;-76
2022/12/31 00:26:07;;;;;;;162.77;100.68;;;;;;;;;;5093076;28;20111;-76
2022/12/31 00:28:33;;;;;;;93.80;63.33;;;;;;;;;;5096557;28;20027;-76
2022/12/31 00:31:24;;;;;;;64.80;47.63;;;;;;;;;;5097197;28;20031;-78
2022/12/31 00:33:52;;;;;;;114.95;79.63;;;;;;;;;;5085487;28;20048;-77
2022/12/31 00:36:23;;;;;;;213.57;132.75;;;;;;;;;;5090441;28;20020;-78
2022/12/31 00:38:49;;;;;;;245.63;155.30;;;;;;;;;;5094220;28;20039;-77
2022/12/31 00:41:15;;;;;;;168.30;109.32;;;;;;;;;;5089389;28;20161;-77
2022/12/31 00:43:41;;;;;;;132.55;88.85;;;;;;;;;;5086761;28;20024;-76
2022/12/31 00:46:06;;;;;;;82.65;57.00;;;;;;;;;;5073267;28;20039;-76
2022/12/31 00:48:32;;;;;;;54.17;41.28;;;;;;;;;;5077697;28;20428;-78
2022/12/31 00:50:58;;;;;;;112.45;80.50;;;;;;;;;;5080005;28;20019;-75
2022/12/31 00:53:24;;;;;;;100.43;68.25;;;;;;;;;;5061090;28;20039;-75
2022/12/31 00:55:49;;;;;;;196.95;122.05;;;;;;;;;;5094959;28;20111;-76
2022/12/31 00:58:15;;;;;;;197.07;123.47;;;;;;;;;;5093072;28;20135;-77
2022/12/31 01:00:40;;;;;;;193.82;120.57;;;;;;;;;;5098265;28;20039;-76
2022/12/31 01:03:06;;;;;;;137.15;91.53;;;;;;;;;;5096819;28;20039;-76
2022/12/31 01:05:32;;;;;;;122.78;82.10;;;;;;;;;;5098394;28;20082;-75
2022/12/31 01:07:58;;;;;;;75.82;51.35;;;;;;;;;;5097537;28;20903;-75
2022/12/31 01:13:07;;;;;;;144.07;92.75;;;;;;;;;;5100792;28;20062;-76
2022/12/31 01:15:34;;;;;;;163.85;103.85;;;;;;;;;;5097815;28;20059;-77
2022/12/31 01:17:59;;;;;;;88.95;61.63;;;;;;;;;;5087465;28;20024;-76
2022/12/31 01:20:25;;;;;;;74.55;50.50;;;;;;;;;;5096302;28;20042;-78
2022/12/31 01:22:50;;;;;;;67.28;45.58;;;;;;;;;;5096491;28;20032;-77
2022/12/31 01:25:15;;;;;;;72.60;47.75;;;;;;;;;;5098165;28;20092;-77
2022/12/31 01:27:40;;;;;;;76.07;50.95;;;;;;;;;;5096726;28;20383;-76
2022/12/31 01:30:06;;;;;;;79.88;56.22;;;;;;;;;;5098829;28;20032;-77
2022/12/31 01:32:31;;;;;;;77.03;55.97;;;;;;;;;;5098942;28;20418;-77
2022/12/31 01:34:57;;;;;;;64.03;44.85;;;;;;;;;;5095748;28;20063;-76
2022/12/31 01:37:22;;;;;;;127.45;84.13;;;;;;;;;;5095618;28;20039;-77
2022/12/31 01:39:47;;;;;;;129.48;84.10;;;;;;;;;;5099408;28;20024;-77
2022/12/31 01:42:13;;;;;;;117.15;87.57;;;;;;;;;;5099051;28;20055;-79
2022/12/31 01:44:38;;;;;;;109.28;84.70;;;;;;;;;;5098029;28;20040;-78
2022/12/31 01:47:04;;;;;;;99.78;81.00;;;;;;;;;;5095658;28;20047;-78
2022/12/31 01:49:39;;;;;;;61.05;50.42;;;;;;;;;;5096963;28;20032;-78
2022/12/31 01:52:13;;;;;;;63.28;47.63;;;;;;;;;;5075493;28;20024;-78
2022/12/31 01:54:41;;;;;;;75.32;55.70;;;;;;;;;;5099828;28;20080;-75
2022/12/31 01:57:07;;;;;;;39.67;32.30;;;;;;;;;;5098413;28;20031;-77
2022/12/31 01:59:32;;;;;;;33.13;28.13;;;;;;;;;;5097133;28;20062;-76
2022/12/31 02:01:58;;;;;;;29.88;24.38;;;;;;;;;;5098479;28;20019;-76
2022/12/31 02:04:24;;;;;;;48.60;38.08;;;;;;;;;;5099117;28;20101;-75
2022/12/31 02:06:55;;;;;;;34.05;25.77;;;;;;;;;;5096208;28;20024;-76
2022/12/31 02:09:20;;;;;;;25.60;19.13;;;;;;;;;;5095070;28;20035;-77
2022/12/31 02:11:46;;;;;;;22.65;18.42;;;;;;;;;;5086678;28;20028;-78
2022/12/31 02:14:19;;;;;;;40.75;32.90;;;;;;;;;;5095664;28;20383;-77
2022/12/31 02:16:44;;;;;;;35.22;26.13;;;;;;;;;;5098247;28;20109;-80
2022/12/31 02:19:29;;;;;;;27.00;21.38;;;;;;;;;;5096139;28;20051;-79
2022/12/31 02:22:21;;;;;;;25.13;20.35;;;;;;;;;;5082632;28;20438;-77
2022/12/31 02:25:04;;;;;;;24.30;21.17;;;;;;;;;;5060067;28;20146;-76
2022/12/31 02:27:48;;;;;;;116.53;70.57;;;;;;;;;;5097411;28;20063;-78
2022/12/31 02:30:17;;;;;;;119.63;75.63;;;;;;;;;;5095405;28;20099;-77
2022/12/31 02:32:58;;;;;;;110.97;78.05;;;;;;;;;;5075230;28;20555;-77
2022/12/31 02:35:43;;;;;;;126.28;85.60;;;;;;;;;;5096570;28;20054;-78
2022/12/31 02:38:16;;;;;;;147.57;104.82;;;;;;;;;;5093692;28;20057;-80
2022/12/31 02:40:42;;;;;;;137.13;95.75;;;;;;;;;;5097953;28;20488;-79
2022/12/31 02:43:07;;;;;;;100.63;73.88;;;;;;;;;;5096017;28;20023;-78
2022/12/31 02:45:35;;;;;;;66.03;44.97;;;;;;;;;;5098933;28;20432;-80
2022/12/31 02:48:20;;;;;;;65.95;44.70;;;;;;;;;;5098037;28;20121;-79
2022/12/31 02:51:09;;;;;;;103.97;75.07;;;;;;;;;;5096560;28;20020;-79
2022/12/31 02:53:51;;;;;;;78.90;60.13;;;;;;;;;;5048706;28;20105;-80
2022/12/31 02:56:26;;;;;;;75.35;56.22;;;;;;;;;;5095719;28;20028;-81
2022/12/31 03:04:32;;;;;;;44.75;33.55;;;;;;;;;;5095549;28;20059;-76
2022/12/31 03:07:08;;;;;;;46.40;35.05;;;;;;;;;;5095109;28;20044;-75
2022/12/31 03:09:34;;;;;;;44.33;31.58;;;;;;;;;;5096525;28;20024;-78
2022/12/31 03:14:44;;;;;;;61.17;45.58;;;;;;;;;;5093382;28;20031;-76
2022/12/31 03:17:09;;;;;;;39.03;29.20;;;;;;;;;;5094724;28;20020;-75
2022/12/31 03:22:28;;;;;;;59.83;44.38;;;;;;;;;;5094574;28;20042;-76
2022/12/31 03:27:45;;;;;;;55.03;40.25;;;;;;;;;;5094921;28;20027;-78
2022/12/31 03:30:11;;;;;;;55.42;36.55;;;;;;;;;;5099392;28;20035;-79
2022/12/31 03:32:36;;;;;;;56.97;36.63;;;;;;;;;;5097778;28;20034;-81
2022/12/31 03:35:02;;;;;;;43.50;30.38;;;;;;;;;;5077462;28;20438;-79
2022/12/31 03:37:27;;;;;;;40.53;28.15;;;;;;;;;;5097632;28;20032;-79
2022/12/31 03:39:52;;;;;;;53.40;33.38;;;;;;;;;;5097487;28;20354;-79
2022/12/31 03:42:17;;;;;;;56.28;38.97;;;;;;;;;;5095925;28;20030;-79
2022/12/31 03:44:43;;;;;;;57.47;41.70;;;;;;;;;;5095183;28;20063;-76
2022/12/31 03:47:08;;;;;;;37.65;29.00;;;;;;;;;;5080095;28;20028;-80
2022/12/31 03:49:33;;;;;;;33.72;25.33;;;;;;;;;;5084550;28;20028;-76
2022/12/31 03:51:58;;;;;;;31.48;22.15;;;;;;;;;;5094440;28;20032;-79
2022/12/31 03:54:24;;;;;;;32.05;22.05;;;;;;;;;;5066468;28;20030;-79
2022/12/31 03:56:49;;;;;;;38.78;25.10;;;;;;;;;;5077475;28;20528;-79
2022/12/31 03:59:14;;;;;;;43.85;29.42;;;;;;;;;;5086552;28;20055;-78
2022/12/31 04:01:40;;;;;;;53.20;34.92;;;;;;;;;;5084347;28;20027;-77
2022/12/31 04:04:05;;;;;;;52.97;30.15;;;;;;;;;;5091440;28;20386;-78
2022/12/31 04:06:30;;;;;;;60.45;44.05;;;;;;;;;;5094844;28;20110;-77
2022/12/31 04:08:55;;;;;;;48.53;38.35;;;;;;;;;;5096841;28;20054;-77
2022/12/31 04:11:21;;;;;;;39.63;31.33;;;;;;;;;;5096224;28;20030;-78
2022/12/31 04:13:46;;;;;;;37.17;28.75;;;;;;;;;;5092085;28;20477;-78
2022/12/31 04:16:11;;;;;;;39.25;29.90;;;;;;;;;;5089271;28;20031;-78
2022/12/31 04:18:37;;;;;;;38.70;29.50;;;;;;;;;;5079263;28;20028;-78
2022/12/31 04:21:03;;;;;;;39.38;32.83;;;;;;;;;;5092000;28;20082;-77
2022/12/31 04:23:28;;;;;;;43.03;32.92;;;;;;;;;;5097095;28;20023;-78
2022/12/31 04:25:53;;;;;;;41.13;31.50;;;;;;;;;;5094283;28;20027;-78
2022/12/31 04:28:19;;;;;;;44.63;30.75;;;;;;;;;;5096946;28;20597;-80
2022/12/31 04:30:44;;;;;;;46.85;30.50;;;;;;;;;;5094961;28;20030;-79
2022/12/31 04:33:09;;;;;;;47.72;31.80;;;;;;;;;;5095815;28;20484;-79
2022/12/31 04:35:34;;;;;;;46.20;36.90;;;;;;;;;;5095225;28;20099;-79
2022/12/31 04:38:00;;;;;;;49.63;36.13;;;;;;;;;;5095279;28;20038;-78
2022/12/31 04:40:25;;;;;;;36.92;31.60;;;;;;;;;;5094434;28;20039;-79
2022/12/31 04:42:50;;;;;;;23.70;19.80;;;;;;;;;;5072654;28;20078;-79
2022/12/31 04:45:16;;;;;;;44.35;35.75;;;;;;;;;;5087224;28;20095;-78
2022/12/31 04:47:41;;;;;;;40.25;31.85;;;;;;;;;;5093134;28;20067;-76
2022/12/31 04:50:06;;;;;;;29.52;24.33;;;;;;;;;;5092704;28;20434;-76
2022/12/31 04:52:32;;;;;;;33.33;22.48;;;;;;;;;;5095671;28;20027;-77
2022/12/31 04:54:57;;;;;;;28.27;21.42;;;;;;;;;;5097071;28;20030;-77
2022/12/31 04:57:22;;;;;;;121.63;94.30;;;;;;;;;;5096162;28;20096;-78
2022/12/31 04:59:48;;;;;;;145.27;110.20;;;;;;;;;;5055586;28;20512;-77
2022/12/31 05:02:13;;;;;;;137.45;102.93;;;;;;;;;;5053835;28;20036;-80
2022/12/31 05:04:38;;;;;;;142.95;116.90;;;;;;;;;;5054001;28;20025;-79
2022/12/31 05:07:03;;;;;;;70.50;55.75;;;;;;;;;;5054517;28;20037;-79
2022/12/31 05:09:29;;;;;;;90.85;69.38;;;;;;;;;;5052123;28;20043;-78
2022/12/31 05:11:55;;;;;;;86.38;68.07;;;;;;;;;;5054365;28;20031;-80
2022/12/31 05:14:20;;;;;;;92.00;69.18;;;;;;;;;;5050682;28;20458;-78
2022/12/31 05:16:45;;;;;;;73.82;51.05;;;;;;;;;;5054909;28;20086;-77
2022/12/31 05:19:11;;;;;;;46.25;35.20;;;;;;;;;;5054532;28;20032;-77
2022/12/31 05:21:36;;;;;;;65.72;45.70;;;;;;;;;;5056932;28;20028;-78
2022/12/31 05:24:01;;;;;;;76.63;53.05;;;;;;;;;;5054535;28;20025;-80
2022/12/31 05:26:27;;;;;;;80.05;57.47;;;;;;;;;;5055241;28;20413;-79
2022/12/31 05:28:52;;;;;;;120.25;89.72;;;;;;;;;;5045612;28;20029;-79
2022/12/31 05:31:17;;;;;;;115.95;92.72;;;;;;;;;;5051340;28;20094;-76
2022/12/31 05:33:42;;;;;;;113.15;87.75;;;;;;;;;;5055601;28;20083;-78
2022/12/31 05:36:08;;;;;;;119.40;87.82;;;;;;;;;;5059502;28;20043;-77
2022/12/31 05:38:33;;;;;;;100.72;70.85;;;;;;;;;;5061367;28;20073;-76
2022/12/31 05:41:02;;;;;;;59.00;43.63;;;;;;;;;;5057107;28;20351;-80
2022/12/31 05:43:28;;;;;;;113.23;81.47;;;;;;;;;;5056817;28;20035;-78
2022/12/31 05:45:53;;;;;;;127.70;90.68;;;;;;;;;;5057644;28;20037;-76
2022/12/31 05:48:18;;;;;;;105.68;77.30;;;;;;;;;;5054181;28;20425;-77
2022/12/31 05:50:44;;;;;;;106.43;79.30;;;;;;;;;;5058660;28;20431;-78
2022/12/31 05:53:09;;;;;;;111.47;87.65;;;;;;;;;;5058526;28;20111;-77
2022/12/31 05:55:34;;;;;;;88.97;64.55;;;;;;;;;;5060749;28;20281;-78
2022/12/31 05:57:59;;;;;;;167.20;122.35;;;;;;;;;;5066788;28;20059;-76
2022/12/31 06:00:25;;;;;;;128.45;100.20;;;;;;;;;;5081079;28;20071;-76
2022/12/31 06:02:50;;;;;;;151.48;115.70;;;;;;;;;;5099102;28;20027;-76
2022/12/31 06:05:16;;;;;;;40.03;32.67;;;;;;;;;;5086775;28;20035;-76
2022/12/31 06:07:41;;;;;;;113.13;84.75;;;;;;;;;;5090501;28;20351;-78
2022/12/31 06:10:07;;;;;;;150.57;112.30;;;;;;;;;;5097536;28;20050;-77
2022/12/31 06:12:32;;;;;;;137.73;103.13;;;;;;;;;;5079981;28;20085;-76
2022/12/31 06:14:57;;;;;;;159.07;121.53;;;;;;;;;;5097925;28;20023;-79
2022/12/31 06:17:22;;;;;;;223.80;139.73;;;;;;;;;;5098473;28;20031;-78
2022/12/31 06:19:48;;;;;;;213.50;125.10;;;;;;;;;;5098500;28;20024;-77
2022/12/31 06:22:13;;;;;;;235.73;134.05;;;;;;;;;;5076476;28;20027;-77
2022/12/31 06:24:39;;;;;;;242.10;132.65;;;;;;;;;;5078097;28;20110;-77
2022/12/31 06:27:04;;;;;;;251.38;149.93;;;;;;;;;;5073903;28;20090;-77
2022/12/31 06:29:29;;;;;;;281.88;169.90;;;;;;;;;;5079971;28;20051;-78
2022/12/31 06:31:54;;;;;;;192.80;123.25;;;;;;;;;;5075679;28;20115;-78
2022/12/31 06:34:20;;;;;;;166.45;120.43;;;;;;;;;;5077799;28;20370;-75
2022/12/31 06:36:45;;;;;;;333.13;260.33;;;;;;;;;;5095367;28;20027;-78
2022/12/31 06:39:10;;;;;;;281.55;232.32;;;;;;;;;;5095492;28;20028;-79
2022/12/31 06:41:36;;;;;;;198.07;164.38;;;;;;;;;;5095048;28;20031;-79
2022/12/31 06:44:01;;;;;;;166.05;137.43;;;;;;;;;;5096886;28;20096;-74
2022/12/31 06:46:27;;;;;;;107.53;91.40;;;;;;;;;;5080921;28;20035;-78
2022/12/31 06:48:52;;;;;;;71.72;56.00;;;;;;;;;;5094170;28;20081;-78
2022/12/31 06:51:19;;;;;;;66.47;52.47;;;;;;;;;;5096485;28;20042;-78
2022/12/31 06:53:45;;;;;;;59.15;47.85;;;;;;;;;;5084841;28;20137;-77
2022/12/31 06:56:14;;;;;;;56.42;45.00;;;;;;;;;;5088956;28;20520;-77
2022/12/31 06:58:40;;;;;;;63.08;52.33;;;;;;;;;;5091618;28;20046;-79
2022/12/31 07:01:18;;;;;;;106.63;83.53;;;;;;;;;;5085735;28;20350;-77
2022/12/31 07:04:02;;;;;;;201.00;154.75;;;;;;;;;;5074975;28;20031;-77
2022/12/31 07:06:39;;;;;;;220.98;175.88;;;;;;;;;;5095186;28;20028;-78
2022/12/31 07:09:25;;;;;;;212.13;171.25;;;;;;;;;;5092989;28;20027;-79
2022/12/31 07:12:13;;;;;;;452.23;357.42;;;;;;;;;;5070332;28;20937;-79
2022/12/31 07:14:48;;;;;;;304.20;237.60;;;;;;;;;;5082357;28;20032;-76
2022/12/31 07:17:14;;;;;;;333.83;264.77;;;;;;;;;;5096766;28;20027;-77
2022/12/31 07:19:51;;;;;;;356.42;277.15;;;;;;;;;;5077168;28;20035;-77
2022/12/31 07:22:17;;;;;;;462.45;348.98;;;;;;;;;;5094493;28;20019;-77
2022/12/31 07:24:43;;;;;;;340.83;256.70;;;;;;;;;;5095715;28;20047;-77
2022/12/31 07:27:11;;;;;;;733.67;575.67;;;;;;;;;;5078251;28;20031;-76
2022/12/31 07:29:48;;;;;;;696.33;548.72;;;;;;;;;;5084525;28;20023;-76
2022/12/31 07:32:40;;;;;;;612.33;501.88;;;;;;;;;;5080536;28;20023;-76
2022/12/31 07:35:15;;;;;;;370.45;294.75;;;;;;;;;;5043965;28;20044;-76
2022/12/31 07:37:59;;;;;;;476.23;396.20;;;;;;;;;;5085013;28;20686;-76
2022/12/31 07:40:27;;;;;;;304.38;256.35;;;;;;;;;;5076978;28;20024;-75
2022/12/31 07:43:11;;;;;;;267.85;222.45;;;;;;;;;;5083962;28;20023;-74
2022/12/31 07:45:47;;;;;;;191.82;162.93;;;;;;;;;;5081195;28;20106;-75
2022/12/31 07:48:23;;;;;;;184.30;162.85;;;;;;;;;;5092197;28;20036;-74
2022/12/31 07:50:49;;;;;;;197.40;174.55;;;;;;;;;;5065718;28;20114;-81
2022/12/31 07:53:15;;;;;;;193.98;171.25;;;;;;;;;;5095729;28;20362;-76
2022/12/31 07:55:40;;;;;;;186.80;161.63;;;;;;;;;;5074752;28;20028;-75
2022/12/31 07:58:18;;;;;;;338.75;267.63;;;;;;;;;;5097424;28;20543;-74
2022/12/31 08:00:43;;;;;;;165.95;137.00;;;;;;;;;;5077094;28;20020;-74
2022/12/31 08:03:38;;;;;;;81.80;69.20;;;;;;;;;;5082454;28;20038;-71
2022/12/31 08:06:11;;;;;;;84.82;75.80;;;;;;;;;;4991978;28;20124;-74
2022/12/31 08:08:36;;;;;;;76.03;67.45;;;;;;;;;;4983784;28;20042;-76
2022/12/31 08:11:10;;;;;;;73.53;65.50;;;;;;;;;;4990647;28;20060;-75
2022/12/31 08:13:36;;;;;;;68.88;61.45;;;;;;;;;;4988457;28;20033;-77
2022/12/31 08:16:02;;;;;;;101.72;90.50;;;;;;;;;;4989475;28;20049;-79
2022/12/31 08:18:27;;;;;;;154.32;137.65;;;;;;;;;;4991030;28;20803;-78
2022/12/31 08:20:52;;;;;;;132.95;118.13;;;;;;;;;;4991759;28;20019;-78
2022/12/31 08:23:24;;;;;;;154.55;134.20;;;;;;;;;;4986425;28;20043;-77
2022/12/31 08:26:02;;;;;;;114.35;101.85;;;;;;;;;;4987150;28;20014;-79
2022/12/31 08:28:42;;;;;;;134.82;113.95;;;;;;;;;;4983789;28;20040;-76
2022/12/31 08:31:12;;;;;;;114.90;101.28;;;;;;;;;;4991942;28;20031;-78
2022/12/31 08:33:37;;;;;;;;;;;;;;;;;;4991720;28;20030;-76
2022/12/31 08:36:02;;;;;;;153.50;133.90;;;;;;;;;;4992495;28;19925;-78
2022/12/31 08:38:45;;;;;;;263.83;231.90;;;;;;;;;;4995932;28;20433;-78
2022/12/31 08:41:26;;;;;;;246.02;204.50;;;;;;;;;;4972749;28;20026;-77
2022/12/31 08:43:54;;;;;;;170.45;137.25;;;;;;;;;;5074269;28;20024;-78
2022/12/31 08:46:26;;;;;;;168.25;141.52;;;;;;;;;;5085316;28;20027;-77
2022/12/31 08:48:52;;;;;;;151.85;123.00;;;;;;;;;;5084975;28;20134;-78
2022/12/31 08:51:19;;;;;;;78.50;64.90;;;;;;;;;;5082023;28;21198;-78
2022/12/31 08:53:47;;;;;;;60.00;50.70;;;;;;;;;;5059028;28;21245;-78
2022/12/31 08:56:41;;;;;;;82.85;69.57;;;;;;;;;;5080966;28;20066;-79
2022/12/31 08:59:06;;;;;;;80.20;67.25;;;;;;;;;;4983556;28;20058;-78
2022/12/31 09:01:36;;;;;;;74.47;65.63;;;;;;;;;;4985212;28;20373;-79
2022/12/31 09:04:04;;;;;;;85.32;73.65;;;;;;;;;;4992339;28;20045;-76
2022/12/31 09:06:47;;;;;;;61.63;53.58;;;;;;;;;;4986301;28;20031;-77
2022/12/31 09:09:48;;;;;;;48.08;42.67;;;;;;;;;;4982016;28;20066;-78
2022/12/31 09:12:21;;;;;;;39.10;35.10;;;;;;;;;;4958784;28;20022;-79
2022/12/31 09:14:54;;;;;;;55.90;48.47;;;;;;;;;;4982583;28;20037;-76
2022/12/31 09:17:23;;;;;;;48.38;43.25;;;;;;;;;;4986479;28;20055;-75
2022/12/31 09:19:48;;;;;;;43.00;38.20;;;;;;;;;;4988072;28;20109;-75
2022/12/31 09:22:14;;;;;;;44.28;39.45;;;;;;;;;;4996452;28;20954;-76
2022/12/31 09:24:39;;;;;;;43.83;37.50;;;;;;;;;;4997009;28;20041;-77
2022/12/31 09:27:23;;;;;;;96.00;63.33;;;;;;;;;;4991629;28;20064;-75
2022/12/31 09:29:52;;;;;;;55.92;33.70;;;;;;;;;;4985685;28;20057;-76
2022/12/31 09:32:24;;;;;;;40.15;27.80;;;;;;;;;;4992888;28;20982;-77
2022/12/31 09:34:50;;;;;;;22.75;19.80;;;;;;;;;;5016019;28;20110;-77
2022/12/31 09:37:20;;;;;;;21.50;16.50;;;;;;;;;;5086966;28;20135;-76
2022/12/31 09:39:46;;;;;;;17.65;15.85;;;;;;;;;;5088775;28;20062;-78
2022/12/31 09:42:18;;;;;;;17.23;15.57;;;;;;;;;;5078831;28;20020;-78
2022/12/31 09:44:53;;;;;;;16.10;11.05;;;;;;;;;;5074251;28;20024;-76
2022/12/31 09:47:41;;;;;;;19.02;17.08;;;;;;;;;;5089802;28;20561;-76
2022/12/31 09:50:25;;;;;;;29.55;26.55;;;;;;;;;;5085002;28;20056;-76
2022/12/31 09:52:51;;;;;;;30.27;27.10;;;;;;;;;;5061752;28;20340;-73
2022/12/31 09:55:16;;;;;;;19.30;17.30;;;;;;;;;;5092738;28;20038;-74
2022/12/31 09:58:06;;;;;;;16.93;15.23;;;;;;;;;;5075818;28;20066;-74
2022/12/31 10:00:58;;;;;;;14.68;12.68;;;;;;;;;;5083946;28;20296;-74
2022/12/31 10:03:58;;;;;;;35.95;31.27;;;;;;;;;;5056654;28;20036;-75
2022/12/31 10:06:33;;;;;;;28.63;24.92;;;;;;;;;;5059879;28;20068;-75
2022/12/31 10:09:01;;;;;;;34.78;31.25;;;;;;;;;;5085471;28;20058;-74
2022/12/31 10:11:45;;;;;;;13.23;7.85;;;;;;;;;;5096288;28;20024;-75
2022/12/31 10:14:22;;;;;;;29.50;25.50;;;;;;;;;;5084349;28;20024;-74
2022/12/31 10:16:47;;;;;;;14.52;13.02;;;;;;;;;;5085119;28;20165;-74
2022/12/31 10:19:12;;;;;;;32.93;29.20;;;;;;;;;;5085052;28;20096;-74
2022/12/31 10:21:37;;;;;;;61.00;50.97;;;;;;;;;;5084171;28;20580;-74
2022/12/31 10:24:18;;;;;;;26.53;19.67;;;;;;;;;;5074462;28;20252;-76
2022/12/31 10:26:43;;;;;;;17.50;13.43;;;;;;;;;;5076694;28;20302;-75
2022/12/31 10:29:23;;;;;;;19.65;15.85;;;;;;;;;;5081688;28;20054;-74
2022/12/31 10:31:52;;;;;;;18.23;16.13;;;;;;;;;;5096629;28;20034;-76
2022/12/31 10:34:25;;;;;;;16.33;13.10;;;;;;;;;;5087177;28;20027;-73
2022/12/31 10:36:51;;;;;;;12.32;9.88;;;;;;;;;;5080530;28;20045;-76
2022/12/31 10:39:35;;;;;;;15.73;14.05;;;;;;;;;;5075864;28;20024;-74
2022/12/31 10:42:16;;;;;;;11.98;9.85;;;;;;;;;;5096032;28;20472;-75
2022/12/31 10:44:59;;;;;;;29.77;24.60;;;;;;;;;;5080994;28;20505;-75
2022/12/31 10:47:47;;;;;;;32.60;28.38;;;;;;;;;;5081122;28;20027;-75
2022/12/31 10:50:31;;;;;;;18.25;13.48;;;;;;;;;;5031297;28;20460;-75
2022/12/31 10:53:16;;;;;;;22.50;18.00;;;;;;;;;;5085995;28;20099;-76
2022/12/31 10:56:00;;;;;;;25.75;19.75;;;;;;;;;;5083049;28;20020;-74
2022/12/31 10:58:44;;;;;;;37.38;29.88;;;;;;;;;;5083869;28;20062;-75
2022/12/31 11:01:27;;;;;;;24.00;16.63;;;;;;;;;;5077416;28;20466;-76
2022/12/31 11:03:59;;;;;;;32.65;25.40;;;;;;;;;;5077463;28;20020;-76
2022/12/31 11:06:39;;;;;;;15.00;13.45;;;;;;;;;;5077848;28;20035;-75
2022/12/31 11:09:10;;;;;;;20.48;14.35;;;;;;;;;;5093466;28;20027;-77
2022/12/31 11:11:41;;;;;;;13.20;11.57;;;;;;;;;;5094807;28;20405;-75
2022/12/31 11:14:09;;;;;;;13.13;11.82;;;;;;;;;;5094873;28;20031;-74
2022/12/31 11:16:35;;;;;;;21.38;18.42;;;;;;;;;;5086426;28;20122;-73
2022/12/31 11:19:06;;;;;;;13.88;11.73;;;;;;;;;;5097520;28;20909;-76
2022/12/31 11:21:50;;;;;;;21.98;19.60;;;;;;;;;;5082560;28;20076;-76
2022/12/31 11:24:16;;;;;;;13.27;11.45;;;;;;;;;;5082747;28;20046;-74
2022/12/31 11:27:05;;;;;;;18.25;15.23;;;;;;;;;;5080902;28;20354;-76
2022/12/31 11:29:39;;;;;;;16.52;13.18;;;;;;;;;;5085405;28;20023;-73
2022/12/31 11:32:08;;;;;;;14.93;13.35;;;;;;;;;;5096549;28;20110;-76
2022/12/31 11:34:36;;;;;;;25.70;21.08;;;;;;;;;;5094185;28;20023;-76
2022/12/31 11:37:04;;;;;;;25.33;19.42;;;;;;;;;;5082201;28;20058;-76
2022/12/31 11:39:53;;;;;;;28.73;24.08;;;;;;;;;;5096066;28;20019;-76
2022/12/31 11:42:38;;;;;;;23.33;19.95;;;;;;;;;;5094355;28;20024;-76
2022/12/31 11:45:03;;;;;;;23.38;19.40;;;;;;;;;;5093578;28;20352;-72
2022/12/31 11:47:32;;;;;;;20.13;16.80;;;;;;;;;;5094250;28;20039;-71
2022/12/31 11:50:00;;;;;;;14.35;12.57;;;;;;;;;;5092549;28;20027;-76
2022/12/31 11:52:45;;;;;;;16.08;14.25;;;;;;;;;;5095432;28;20027;-73
2022/12/31 11:55:23;;;;;;;24.80;17.80;;;;;;;;;;5092018;28;20044;-78
2022/12/31 11:57:49;;;;;;;13.48;10.52;;;;;;;;;;5093330;28;20048;-75
2022/12/31 12:00:22;;;;;;;15.50;13.70;;;;;;;;;;5094096;28;20035;-75
2022/12/31 12:02:49;;;;;;;12.27;10.65;;;;;;;;;;5077322;28;20025;-76
2022/12/31 12:05:15;;;;;;;11.93;10.70;;;;;;;;;;5091907;28;20024;-77
2022/12/31 12:07:41;;;;;;;15.82;14.13;;;;;;;;;;5085514;28;20038;-78
2022/12/31 12:10:25;;;;;;;13.40;11.40;;;;;;;;;;5091498;28;20130;-75
2022/12/31 12:12:52;;;;;;;21.30;18.15;;;;;;;;;;5093091;28;20064;-75
2022/12/31 12:15:21;;;;;;;24.33;21.65;;;;;;;;;;5096079;28;20050;-78
2022/12/31 12:17:49;;;;;;;23.98;20.52;;;;;;;;;;5093879;28;20032;-74
2022/12/31 12:20:17;;;;;;;14.55;13.05;;;;;;;;;;5085430;28;20055;-77
2022/12/31 12:22:53;;;;;;;14.38;12.55;;;;;;;;;;5082777;28;20038;-75
2022/12/31 12:25:20;;;;;;;42.72;32.50;;;;;;;;;;5074435;28;20139;-75
2022/12/31 12:27:46;;;;;;;42.05;32.88;;;;;;;;;;5081721;28;20035;-77
2022/12/31 12:30:31;;;;;;;27.95;22.77;;;;;;;;;;5080018;28;20023;-78
2022/12/31 12:32:58;;;;;;;26.83;23.77;;;;;;;;;;5079639;28;20039;-77
2022/12/31 12:35:28;;;;;;;19.38;17.38;;;;;;;;;;5075285;28;20111;-76
2022/12/31 12:38:04;;;;;;;20.38;18.15;;;;;;;;;;5078297;28;20024;-75
2022/12/31 12:40:30;;;;;;;25.65;21.77;;;;;;;;;;5078612;28;20034;-77
2022/12/31 12:42:56;;;;;;;26.52;23.92;;;;;;;;;;5073270;28;20347;-75
2022/12/31 12:45:23;;;;;;;14.65;11.73;;;;;;;;;;5056669;28;20028;-77
2022/12/31 12:47:52;;;;;;;22.30;19.88;;;;;;;;;;5076261;28;20020;-78
2022/12/31 12:50:17;;;;;;;;;;;;;;;;;;5068973;28;20035;-76
2022/12/31 12:53:01;;;;;;;10.57;7.93;;;;;;;;;;5070913;28;19912;-77
2022/12/31 12:55:27;;;;;;;14.93;10.70;;;;;;;;;;5073117;28;20028;-76
2022/12/31 12:58:07;;;;;;;10.70;8.70;;;;;;;;;;5071455;28;20125;-76
2022/12/31 13:00:37;;;;;;;7.63;6.88;;;;;;;;;;5070782;28;20349;-76
2022/12/31 13:03:21;;;;;;;14.05;12.65;;;;;;;;;;5070069;28;20026;-75
2022/12/31 13:06:05;;;;;;;9.38;8.20;;;;;;;;;;5072221;28;20062;-74
2022/12/31 13:08:42;;;;;;;14.18;12.70;;;;;;;;;;5058937;28;20123;-76
2022/12/31 13:11:17;;;;;;;11.15;10.05;;;;;;;;;;5091071;28;20135;-76
2022/12/31 13:13:45;;;;;;;22.63;18.98;;;;;;;;;;5089808;28;20022;-76
2022/12/31 13:16:23;;;;;;;16.17;14.30;;;;;;;;;;5094290;28;20054;-75
2022/12/31 13:19:06;;;;;;;19.88;17.88;;;;;;;;;;5094022;28;20028;-75
2022/12/31 13:21:34;;;;;;;7.72;6.05;;;;;;;;;;5093064;28;20614;-73
2022/12/31 13:24:00;;;;;;;11.25;9.32;;;;;;;;;;5099549;28;20027;-75
2022/12/31 13:26:40;;;;;;;12.07;10.77;;;;;;;;;;5098057;28;20035;-75
2022/12/31 13:29:11;;;;;;;15.70;11.27;;;;;;;;;;5098092;28;20294;-75
2022/12/31 13:31:38;;;;;;;14.18;11.80;;;;;;;;;;5099773;28;20115;-76
2022/12/31 13:34:05;;;;;;;11.20;8.40;;;;;;;;;;5097645;28;20027;-76
2022/12/31 13:36:31;;;;;;;32.08;28.63;;;;;;;;;;5099098;28;20118;-73
2022/12/31 13:38:59;;;;;;;21.73;19.42;;;;;;;;;;5097438;28;20095;-75
2022/12/31 13:41:30;;;;;;;12.63;11.32;;;;;;;;;;5090270;28;20023;-75
2022/12/31 13:44:14;;;;;;;18.48;15.70;;;;;;;;;;5099807;27;20114;-76
2022/12/31 13:46:59;;;;;;;15.45;13.30;;;;;;;;;;5096363;27;20088;-75
2022/12/31 13:49:32;;;;;;;18.20;16.02;;;;;;;;;;5098791;27;20447;-74
2022/12/31 13:52:09;;;;;;;14.85;13.27;;;;;;;;;;5108155;27;20092;-75
2022/12/31 13:54:54;;;;;;;15.88;14.13;;;;;;;;;;5106880;27;20023;-74
2022/12/31 13:57:40;;;;;;;25.17;17.65;;;;;;;;;;5109987;27;20027;-76
2022/12/31 14:00:13;;;;;;;20.02;14.85;;;;;;;;;;5102199;27;20398;-74
2022/12/31 14:02:49;;;;;;;13.95;11.00;;;;;;;;;;5111278;27;20032;-74
2022/12/31 14:05:17;;;;;;;10.80;9.70;;;;;;;;;;5105180;27;20020;-74
2022/12/31 14:07:45;;;;;;;14.32;11.75;;;;;;;;;;5118056;27;20034;-73
2022/12/31 14:10:15;;;;;;;20.65;14.98;;;;;;;;;;5095048;27;20035;-74
2022/12/31 14:12:46;;;;;;;20.45;18.27;;;;;;;;;;5105519;27;20027;-73
2022/12/31 14:15:12;;;;;;;33.80;30.65;;;;;;;;;;5109760;27;20058;-72
2022/12/31 14:17:37;;;;;;;50.58;45.03;;;;;;;;;;5098906;27;20066;-72
2022/12/31 14:20:15;;;;;;;62.42;47.45;;;;;;;;;;5096008;27;20034;-72
2022/12/31 14:22:55;;;;;;;71.03;49.85;;;;;;;;;;5095433;27;20066;-72
2022/12/31 14:25:27;;;;;;;80.65;59.58;;;;;;;;;;5098172;27;20491;-72
2022/12/31 14:27:53;;;;;;;73.80;54.95;;;;;;;;;;5096337;27;20464;-75
2022/12/31 14:30:20;;;;;;;100.70;71.25;;;;;;;;;;5095993;27;20028;-72
2022/12/31 14:32:48;;;;;;;33.58;24.38;;;;;;;;;;5096397;27;20023;-73
2022/12/31 14:35:36;;;;;;;47.60;35.28;;;;;;;;;;5098500;27;20434;-73
2022/12/31 14:38:20;;;;;;;53.60;43.35;;;;;;;;;;5093772;27;20050;-73
2022/12/31 14:41:06;;;;;;;76.97;68.55;;;;;;;;;;5104058;27;20027;-74
2022/12/31 14:43:37;;;;;;;52.03;42.20;;;;;;;;;;5041932;27;20077;-74
2022/12/31 14:46:05;;;;;;;62.60;51.78;;;;;;;;;;5096077;27;20024;-73
2022/12/31 14:48:43;;;;;;;154.50;126.35;;;;;;;;;;5093890;27;20409;-76